Scotland, Pennsylvania
Current Conditions -  °F | °C
As of 5:53 AM on Tuesday 21 Oct 2014 (Local Time) from KRYT Reporting Station
Haze Haze  
Wind Chill: 46°   Ceiling: Unl
Heat Index: 46°   Visibility: 3mi
Dew Point: 45°   Wind: 0mph
Humidity: 96%   Direction: NA
Pressure: 29.84"   Gusts: NA
Location:  39.97°N, 77.59°W
Report Text: KRYT 210953Z AUTO 00000KT 3SM BR SCT100 08/07 A2984 RMK AO2 SLP107 T00780072 $
Loading
Personal Weather Stations






























Interactive Weather Map
Tropical Storm Tracking
New forecast layout! Learn more

10-Day Weather Forecast

Advertisements
Track Severe Weather on mobile